Time,TemperatureF,DewpointF,PressureIn,WindDirection,WindDirectionDegrees,WindSpeedMPH,WindSpeedGustMPH,Humidity,HourlyPrecipIn,Conditions,Clouds,dailyrainin,SoftwareType,DateUTC
2013-03-02 00:01:00,63.0,55.0,30.04,NNW,334,13.0,22.0,76,0.00,,,0.23,,2013-03-02 06:01:00,
2013-03-02 00:11:00,63.0,55.0,30.04,NNW,334,13.0,22.0,76,0.00,,,0.23,,2013-03-02 06:11:00,
2013-03-02 00:21:00,63.0,55.0,30.04,NW,313,16.0,23.0,76,0.00,,,0.23,,2013-03-02 06:21:00,
2013-03-02 00:31:00,63.0,56.0,30.04,NNW,343,13.0,21.0,78,0.00,,,0.20,,2013-03-02 06:31:00,
2013-03-02 00:42:00,63.0,56.0,30.04,NNW,343,13.0,21.0,78,0.00,,,0.20,,2013-03-02 06:42:00,
2013-03-02 00:51:00,63.0,56.0,30.04,NNW,348,13.0,24.0,79,0.00,,,0.20,,2013-03-02 06:51:00,
2013-03-02 01:01:00,62.0,55.0,30.04,NW,315,12.0,23.0,79,0.00,,,0.20,,2013-03-02 07:01:00,
2013-03-02 01:11:00,62.0,55.0,30.04,West,281,13.0,23.0,79,0.00,,,0.20,,2013-03-02 07:11:00,
2013-03-02 01:21:00,62.0,55.0,30.04,West,281,13.0,23.0,79,0.00,,,0.20,,2013-03-02 07:21:00,
2013-03-02 01:32:00,62.0,55.0,30.04,West,281,13.0,23.0,79,0.00,,,0.20,,2013-03-02 07:32:00,
2013-03-02 01:42:00,62.0,55.0,30.04,West,281,13.0,23.0,79,0.00,,,0.20,,2013-03-02 07:42:00,
2013-03-02 01:51:00,62.0,56.0,30.03,NW,311,14.0,23.0,81,0.00,,,0.18,,2013-03-02 07:51:00,
2013-03-02 02:01:00,62.0,56.0,30.03,NW,321,15.0,23.0,81,0.00,,,0.18,,2013-03-02 08:01:00,
2013-03-02 02:11:00,62.0,56.0,30.03,NW,321,15.0,23.0,81,0.00,,,0.18,,2013-03-02 08:11:00,
2013-03-02 02:21:00,62.0,56.0,30.02,NW,323,13.0,22.0,81,0.00,,,0.18,,2013-03-02 08:21:00,
2013-03-02 02:32:00,62.0,56.0,30.03,WNW,298,14.0,27.0,82,0.00,,,0.15,,2013-03-02 08:32:00,
2013-03-02 02:42:00,62.0,56.0,30.03,WNW,298,14.0,27.0,82,0.00,,,0.15,,2013-03-02 08:42:00,
2013-03-02 02:52:00,62.0,56.0,30.03,NW,324,14.0,25.0,82,0.00,,,0.15,,2013-03-02 08:52:00,
2013-03-02 03:02:00,61.0,55.0,30.03,NW,310,15.0,29.0,82,0.00,,,0.15,,2013-03-02 09:02:00,
2013-03-02 03:11:00,61.0,56.0,30.03,NNW,345,14.0,27.0,83,0.00,,,0.15,,2013-03-02 09:11:00,
2013-03-02 03:21:00,61.0,56.0,30.03,NNW,345,14.0,27.0,83,0.00,,,0.15,,2013-03-02 09:21:00,
2013-03-02 03:32:00,61.0,55.0,30.03,NW,311,13.0,27.0,81,0.00,,,0.15,,2013-03-02 09:32:00,
2013-03-02 03:42:00,61.0,55.0,30.03,NW,311,13.0,27.0,81,0.00,,,0.15,,2013-03-02 09:42:00,
2013-03-02 03:51:00,61.0,55.0,30.03,NNW,329,15.0,28.0,81,0.00,,,0.15,,2013-03-02 09:51:00,
2013-03-02 04:01:00,61.0,55.0,30.03,NW,317,15.0,26.0,81,0.00,,,0.15,,2013-03-02 10:01:00,
2013-03-02 04:16:00,61.0,55.0,30.03,NW,317,15.0,26.0,81,0.00,,,0.15,,2013-03-02 10:16:00,
2013-03-02 04:22:00,61.0,55.0,30.03,NW,317,16.0,28.0,80,0.00,,,0.15,,2013-03-02 10:22:00,
2013-03-02 04:32:00,61.0,55.0,30.03,NNW,344,15.0,23.0,81,0.00,,,0.08,,2013-03-02 10:32:00,
2013-03-02 04:42:00,61.0,55.0,30.03,NNW,344,15.0,23.0,81,0.00,,,0.08,,2013-03-02 10:42:00,
2013-03-02 04:51:00,61.0,55.0,30.04,WNW,294,15.0,28.0,81,0.00,,,0.08,,2013-03-02 10:51:00,
2013-03-02 05:01:00,61.0,54.0,30.04,WNW,300,15.0,27.0,79,0.00,,,0.08,,2013-03-02 11:01:00,
2013-03-02 05:11:00,61.0,54.0,30.04,WNW,300,15.0,27.0,79,0.00,,,0.08,,2013-03-02 11:11:00,
2013-03-02 05:21:00,61.0,54.0,30.04,NNW,338,17.0,28.0,78,0.00,,,0.08,,2013-03-02 11:21:00,
2013-03-02 05:32:00,61.0,54.0,30.04,North,5,16.0,28.0,78,0.00,,,0.03,,2013-03-02 11:32:00,
2013-03-02 05:42:00,61.0,54.0,30.04,North,5,16.0,28.0,78,0.00,,,0.03,,2013-03-02 11:42:00,
2013-03-02 05:52:00,61.0,54.0,30.05,NW,321,16.0,27.0,79,0.00,,,0.03,,2013-03-02 11:52:00,
2013-03-02 06:02:00,61.0,54.0,30.06,NNW,346,14.0,28.0,77,0.00,,,0.03,,2013-03-02 12:02:00,
2013-03-02 06:11:00,61.0,54.0,30.06,NNW,346,14.0,28.0,77,0.00,,,0.03,,2013-03-02 12:11:00,
2013-03-02 06:21:00,61.0,54.0,30.06,NW,317,16.0,32.0,78,0.00,,,0.03,,2013-03-02 12:21:00,
2013-03-02 06:33:00,61.0,53.0,30.07,NW,306,18.0,31.0,76,0.00,,,0.01,,2013-03-02 12:33:00,
2013-03-02 06:43:00,61.0,53.0,30.07,NW,306,18.0,31.0,76,0.00,,,0.01,,2013-03-02 12:43:00,
2013-03-02 06:53:00,61.0,53.0,30.07,NNW,338,18.0,32.0,76,0.00,,,0.01,,2013-03-02 12:53:00,
2013-03-02 07:01:00,61.0,53.0,30.08,NNW,334,16.0,33.0,76,0.00,,,0.01,,2013-03-02 13:01:00,
2013-03-02 07:11:00,61.0,53.0,30.08,NNW,334,16.0,33.0,76,0.00,,,0.01,,2013-03-02 13:11:00,
2013-03-02 07:22:00,61.0,53.0,30.08,North,351,15.0,31.0,76,0.00,,,0.01,,2013-03-02 13:22:00,
2013-03-02 07:32:00,61.0,53.0,30.09,NNE,26,16.0,26.0,75,0.00,,,0.00,,2013-03-02 13:32:00,
2013-03-02 07:42:00,61.0,53.0,30.09,NNE,26,16.0,26.0,75,0.00,,,0.00,,2013-03-02 13:42:00,
2013-03-02 07:52:00,61.0,54.0,30.10,North,350,13.0,31.0,77,0.00,,,0.00,,2013-03-02 13:52:00,
2013-03-02 08:01:00,61.0,53.0,30.10,NW,319,18.0,29.0,76,0.00,,,0.00,,2013-03-02 14:01:00,
2013-03-02 08:11:00,61.0,53.0,30.10,NW,319,18.0,29.0,76,0.00,,,0.00,,2013-03-02 14:11:00,
2013-03-02 08:21:00,61.0,53.0,30.11,NW,313,15.0,28.0,75,0.00,,,0.00,,2013-03-02 14:21:00,
2013-03-02 08:32:00,61.0,53.0,30.12,NW,323,16.0,27.0,76,0.00,,,0.00,,2013-03-02 14:32:00,
2013-03-02 08:42:00,61.0,53.0,30.12,NW,323,16.0,27.0,76,0.00,,,0.00,,2013-03-02 14:42:00,
2013-03-02 08:52:00,62.0,54.0,30.13,NW,320,7.0,26.0,76,0.00,,,0.00,,2013-03-02 14:52:00,
2013-03-02 09:02:00,62.0,54.0,30.14,North,360,16.0,29.0,75,0.00,,,0.00,,2013-03-02 15:02:00,
2013-03-02 09:11:00,62.0,54.0,30.14,North,360,16.0,29.0,75,0.00,,,0.00,,2013-03-02 15:11:00,
2013-03-02 09:21:00,62.0,54.0,30.15,NNW,342,13.0,29.0,74,0.00,,,0.00,,2013-03-02 15:21:00,
2013-03-02 09:32:00,63.0,55.0,30.15,NNW,329,11.0,27.0,74,0.00,,,0.00,,2013-03-02 15:32:00,
2013-03-02 09:42:00,63.0,55.0,30.15,NNW,329,11.0,27.0,74,0.00,,,0.00,,2013-03-02 15:42:00,
2013-03-02 09:52:00,63.0,54.0,30.15,NNE,15,10.0,26.0,73,0.00,,,0.00,,2013-03-02 15:52:00,
2013-03-02 10:01:00,64.0,55.0,30.15,NNE,28,9.0,26.0,72,0.00,,,0.00,,2013-03-02 16:01:00,
2013-03-02 10:11:00,64.0,55.0,30.15,NNE,28,9.0,26.0,72,0.00,,,0.00,,2013-03-02 16:11:00,
2013-03-02 10:21:00,64.0,53.0,30.15,NW,323,13.0,23.0,68,0.00,,,0.00,,2013-03-02 16:21:00,
2013-03-02 10:32:00,64.0,55.0,30.15,NNE,31,4.0,25.0,72,0.00,,,0.00,,2013-03-02 16:32:00,
2013-03-02 10:42:00,64.0,55.0,30.15,NNE,31,4.0,25.0,72,0.00,,,0.00,,2013-03-02 16:42:00,
2013-03-02 10:51:00,65.0,55.0,30.14,NW,325,10.0,26.0,70,0.00,,,0.00,,2013-03-02 16:51:00,
2013-03-02 11:01:00,66.0,55.0,30.14,NW,311,11.0,24.0,67,0.00,,,0.00,,2013-03-02 17:01:00,
2013-03-02 11:11:00,66.0,55.0,30.14,NW,311,11.0,24.0,67,0.00,,,0.00,,2013-03-02 17:11:00,
2013-03-02 11:21:00,66.0,54.0,30.14,NNW,347,13.0,28.0,65,0.00,,,0.00,,2013-03-02 17:21:00,
2013-03-02 11:32:00,67.0,53.0,30.14,NE,42,11.0,22.0,61,0.00,,,0.00,,2013-03-02 17:32:00,
2013-03-02 11:42:00,67.0,53.0,30.14,NE,42,11.0,22.0,61,0.00,,,0.00,,2013-03-02 17:42:00,
2013-03-02 11:52:00,67.0,54.0,30.14,NW,313,14.0,24.0,62,0.00,,,0.00,,2013-03-02 17:52:00,
2013-03-02 12:02:00,67.0,52.0,30.13,NW,315,9.0,25.0,58,0.00,,,0.00,,2013-03-02 18:02:00,
2013-03-02 12:11:00,67.0,52.0,30.13,NW,315,9.0,25.0,58,0.00,,,0.00,,2013-03-02 18:11:00,
2013-03-02 12:22:00,68.0,48.0,30.13,NNW,336,8.0,27.0,48,0.00,,,0.00,,2013-03-02 18:22:00,
2013-03-02 12:32:00,69.0,46.0,30.12,NW,317,6.0,25.0,44,0.00,,,0.00,,2013-03-02 18:32:00,
2013-03-02 12:42:00,69.0,46.0,30.12,NW,317,6.0,25.0,44,0.00,,,0.00,,2013-03-02 18:42:00,
2013-03-02 12:52:00,70.0,45.0,30.11,North,5,9.0,22.0,41,0.00,,,0.00,,2013-03-02 18:52:00,
2013-03-02 13:01:00,70.0,43.0,30.11,NW,309,12.0,28.0,38,0.00,,,0.00,,2013-03-02 19:01:00,
2013-03-02 13:11:00,70.0,43.0,30.11,NW,309,12.0,28.0,38,0.00,,,0.00,,2013-03-02 19:11:00,
2013-03-02 13:21:00,70.0,43.0,30.10,NNW,336,11.0,24.0,37,0.00,,,0.00,,2013-03-02 19:21:00,
2013-03-02 13:32:00,70.0,44.0,30.10,NW,325,8.0,26.0,39,0.00,,,0.00,,2013-03-02 19:32:00,
2013-03-02 13:42:00,70.0,44.0,30.10,NW,325,8.0,26.0,39,0.00,,,0.00,,2013-03-02 19:42:00,
2013-03-02 13:52:00,70.0,42.0,30.10,NNW,347,5.0,24.0,36,0.00,,,0.00,,2013-03-02 19:52:00,
2013-03-02 14:01:00,70.0,45.0,30.09,North,360,10.0,25.0,40,0.00,,,0.00,,2013-03-02 20:01:00,
2013-03-02 14:11:00,70.0,45.0,30.09,North,360,10.0,25.0,40,0.00,,,0.00,,2013-03-02 20:11:00,
2013-03-02 14:22:00,70.0,45.0,30.09,NW,314,12.0,25.0,40,0.00,,,0.00,,2013-03-02 20:22:00,
2013-03-02 14:32:00,70.0,43.0,30.09,NNE,21,8.0,25.0,37,0.00,,,0.00,,2013-03-02 20:32:00,
2013-03-02 14:42:00,70.0,43.0,30.09,NNE,21,8.0,25.0,37,0.00,,,0.00,,2013-03-02 20:42:00,
2013-03-02 14:52:00,70.0,45.0,30.09,NW,320,11.0,23.0,41,0.00,,,0.00,,2013-03-02 20:52:00,
2013-03-02 15:02:00,69.0,43.0,30.09,WNW,298,17.0,23.0,39,0.00,,,0.00,,2013-03-02 21:02:00,
2013-03-02 15:11:00,69.0,43.0,30.09,WNW,298,17.0,23.0,39,0.00,,,0.00,,2013-03-02 21:11:00,
2013-03-02 15:22:00,68.0,45.0,30.09,NNW,347,7.0,20.0,43,0.00,,,0.00,,2013-03-02 21:22:00,
2013-03-02 15:32:00,68.0,45.0,30.09,NW,317,7.0,23.0,43,0.00,,,0.00,,2013-03-02 21:32:00,
2013-03-02 15:42:00,68.0,45.0,30.09,NW,317,7.0,23.0,43,0.00,,,0.00,,2013-03-02 21:42:00,
2013-03-02 15:52:00,68.0,45.0,30.09,NNW,342,7.0,21.0,44,0.00,,,0.00,,2013-03-02 21:52:00,
2013-03-02 16:02:00,68.0,46.0,30.09,NNE,15,7.0,24.0,45,0.00,,,0.00,,2013-03-02 22:02:00,
2013-03-02 16:11:00,68.0,46.0,30.09,NNE,15,7.0,24.0,45,0.00,,,0.00,,2013-03-02 22:11:00,
2013-03-02 16:21:00,68.0,45.0,30.10,NW,320,10.0,25.0,44,0.00,,,0.00,,2013-03-02 22:21:00,
2013-03-02 16:32:00,68.0,45.0,30.11,NNW,327,17.0,29.0,44,0.00,,,0.00,,2013-03-02 22:32:00,
2013-03-02 16:42:00,68.0,45.0,30.11,NNW,327,17.0,29.0,44,0.00,,,0.00,,2013-03-02 22:42:00,
2013-03-02 16:51:00,68.0,45.0,30.11,NW,314,16.0,28.0,43,0.00,,,0.00,,2013-03-02 22:51:00,
2013-03-02 17:01:00,68.0,46.0,30.11,NNW,339,9.0,28.0,45,0.00,,,0.00,,2013-03-02 23:01:00,
2013-03-02 17:11:00,68.0,45.0,30.12,NW,311,15.0,25.0,43,0.00,,,0.00,,2013-03-02 23:11:00,
2013-03-02 17:21:00,68.0,45.0,30.12,NW,311,15.0,25.0,43,0.00,,,0.00,,2013-03-02 23:21:00,
2013-03-02 17:32:00,67.0,46.0,30.13,NNE,31,11.0,26.0,46,0.00,,,0.00,,2013-03-02 23:32:00,
2013-03-02 17:42:00,67.0,46.0,30.13,NNE,31,11.0,26.0,46,0.00,,,0.00,,2013-03-02 23:42:00,
2013-03-02 17:52:00,67.0,46.0,30.14,NNW,337,10.0,25.0,46,0.00,,,0.00,,2013-03-02 23:52:00,
2013-03-02 18:02:00,66.0,45.0,30.14,NW,326,10.0,22.0,47,0.00,,,0.00,,2013-03-03 00:02:00,
2013-03-02 18:11:00,66.0,45.0,30.14,NW,326,10.0,22.0,47,0.00,,,0.00,,2013-03-03 00:11:00,
2013-03-02 18:22:00,65.0,44.0,30.14,NW,323,12.0,22.0,47,0.00,,,0.00,,2013-03-03 00:22:00,
2013-03-02 18:32:00,64.0,45.0,30.15,North,355,10.0,22.0,51,0.00,,,0.00,,2013-03-03 00:32:00,
2013-03-02 18:42:00,64.0,45.0,30.15,North,355,10.0,22.0,51,0.00,,,0.00,,2013-03-03 00:42:00,
2013-03-02 18:52:00,64.0,45.0,30.16,NNW,328,12.0,24.0,50,0.00,,,0.00,,2013-03-03 00:52:00,
2013-03-02 19:01:00,64.0,47.0,30.17,NNW,337,8.0,19.0,53,0.00,,,0.00,,2013-03-03 01:01:00,
2013-03-02 19:11:00,64.0,47.0,30.17,NNW,337,8.0,19.0,53,0.00,,,0.00,,2013-03-03 01:11:00,
2013-03-02 19:21:00,63.0,46.0,30.17,NNW,331,10.0,21.0,54,0.00,,,0.00,,2013-03-03 01:21:00,
2013-03-02 19:32:00,63.0,45.0,30.18,NW,317,14.0,24.0,52,0.00,,,0.00,,2013-03-03 01:32:00,
2013-03-02 19:42:00,63.0,45.0,30.18,NW,317,14.0,24.0,52,0.00,,,0.00,,2013-03-03 01:42:00,
2013-03-02 19:52:00,63.0,46.0,30.18,NW,325,15.0,23.0,53,0.00,,,0.00,,2013-03-03 01:52:00,
2013-03-02 20:01:00,62.0,45.0,30.19,NNW,335,12.0,23.0,54,0.00,,,0.00,,2013-03-03 02:01:00,
2013-03-02 20:11:00,62.0,45.0,30.19,NNW,335,12.0,23.0,54,0.00,,,0.00,,2013-03-03 02:11:00,
2013-03-02 20:21:00,62.0,46.0,30.19,NW,325,10.0,22.0,55,0.00,,,0.00,,2013-03-03 02:21:00,
2013-03-02 20:32:00,62.0,46.0,30.20,NW,317,9.0,21.0,55,0.00,,,0.00,,2013-03-03 02:32:00,
2013-03-02 20:42:00,62.0,46.0,30.20,NW,317,9.0,21.0,55,0.00,,,0.00,,2013-03-03 02:42:00,
2013-03-02 20:52:00,62.0,46.0,30.20,NW,321,6.0,21.0,56,0.00,,,0.00,,2013-03-03 02:52:00,
2013-03-02 21:01:00,62.0,46.0,30.20,WNW,285,6.0,19.0,55,0.00,,,0.00,,2013-03-03 03:01:00,
2013-03-02 21:11:00,62.0,46.0,30.20,WNW,285,6.0,19.0,55,0.00,,,0.00,,2013-03-03 03:11:00,
2013-03-02 21:21:00,62.0,46.0,30.20,WNW,285,6.0,19.0,55,0.00,,,0.00,,2013-03-03 03:21:00,
2013-03-02 21:31:00,62.0,46.0,30.20,WNW,285,6.0,19.0,55,0.00,,,0.00,,2013-03-03 03:31:00,